createdAt,value
2022-10-04T00:00:36.997Z,64.97
2022-10-04T00:03:41.441Z,64.57
2022-10-04T00:06:17.571Z,64.93
2022-10-04T00:08:52.140Z,64.94
2022-10-04T00:11:31.930Z,64.94
2022-10-04T00:14:06.967Z,64.54
2022-10-04T00:16:40.798Z,64.67
2022-10-04T00:19:20.146Z,64.80
2022-10-04T00:21:53.449Z,64.47
2022-10-04T00:24:32.760Z,64.69
2022-10-04T00:27:24.699Z,64.48
2022-10-04T00:30:03.577Z,64.81
2022-10-04T00:32:40.485Z,64.45
2022-10-04T00:35:37.102Z,64.57
2022-10-04T00:38:07.014Z,64.37
2022-10-04T00:40:50.557Z,64.25
2022-10-04T00:43:40.654Z,64.76
2022-10-04T00:46:15.956Z,64.82
2022-10-04T00:49:00.783Z,64.70
2022-10-04T00:51:58.575Z,65.01
2022-10-04T00:54:41.306Z,64.85
2022-10-04T00:57:20.313Z,64.51
2022-10-04T01:00:04.700Z,64.81
2022-10-04T01:02:46.661Z,64.96
2022-10-04T01:05:42.227Z,64.65
2022-10-04T01:08:13.833Z,64.89
2022-10-04T01:10:55.789Z,64.56
2022-10-04T01:13:35.758Z,65.11
2022-10-04T01:16:11.576Z,64.80
2022-10-04T01:18:38.785Z,64.66
2022-10-04T01:21:08.493Z,64.99
2022-10-04T01:23:42.543Z,64.63
2022-10-04T01:26:32.146Z,64.99
2022-10-04T01:29:05.749Z,65.09
2022-10-04T01:31:37.566Z,65.37
2022-10-04T01:34:07.010Z,65.31
2022-10-04T01:36:37.093Z,65.58
2022-10-04T01:39:05.592Z,65.48
2022-10-04T01:41:46.529Z,65.43
2022-10-04T01:44:37.296Z,65.23
2022-10-04T01:47:24.263Z,65.21
2022-10-04T01:49:58.373Z,65.40
2022-10-04T01:52:50.243Z,65.35
2022-10-04T01:55:25.828Z,65.04
2022-10-04T01:58:00.867Z,65.21
2022-10-04T02:00:32.474Z,65.31
2022-10-04T02:03:10.200Z,65.09
2022-10-04T02:05:52.306Z,65.05
2022-10-04T02:08:29.271Z,65.37
2022-10-04T02:11:00.664Z,65.04
2022-10-04T02:13:35.942Z,65.08
2022-10-04T02:16:10.373Z,65.05
2022-10-04T02:18:40.346Z,65.45
2022-10-04T02:21:08.261Z,65.28
2022-10-04T02:23:38.086Z,65.42
2022-10-04T02:26:11.227Z,65.25
2022-10-04T02:28:39.285Z,65.01
2022-10-04T02:31:27.249Z,65.15
2022-10-04T02:34:00.159Z,65.42
2022-10-04T02:36:30.046Z,65.44
2022-10-04T02:39:10.126Z,65.58
2022-10-04T02:41:57.538Z,65.21
2022-10-04T02:45:00.196Z,65.32
2022-10-04T02:47:43.289Z,65.48
2022-10-04T02:50:29.611Z,65.59
2022-10-04T02:53:14.534Z,65.06
2022-10-04T02:55:43.050Z,65.21
2022-10-04T02:58:17.236Z,65.27
2022-10-04T03:00:52.329Z,65.50
2022-10-04T03:03:29.585Z,65.28
2022-10-04T03:06:05.165Z,65.33
2022-10-04T03:08:59.114Z,65.49
2022-10-04T03:11:33.655Z,65.77
2022-10-04T03:14:05.365Z,65.59
2022-10-04T03:16:43.927Z,65.78
2022-10-04T03:19:15.136Z,65.79
2022-10-04T03:21:47.047Z,65.46
2022-10-04T03:24:23.446Z,65.55
2022-10-04T03:26:58.314Z,65.99
2022-10-04T03:29:30.317Z,66.10
2022-10-04T03:32:00.689Z,66.04
2022-10-04T03:34:40.207Z,65.87
2022-10-04T03:37:15.926Z,65.83
2022-10-04T03:39:53.922Z,65.54
2022-10-04T03:42:34.952Z,65.62
2022-10-04T03:45:15.729Z,65.88
2022-10-04T03:47:50.565Z,65.82
2022-10-04T03:50:25.457Z,65.79
2022-10-04T03:53:04.421Z,65.50
2022-10-04T03:55:42.607Z,65.46
2022-10-04T03:58:17.922Z,65.60
2022-10-04T04:01:14.800Z,65.75
2022-10-04T04:04:01.043Z,65.56
2022-10-04T04:06:51.422Z,65.69
2022-10-04T04:10:05.587Z,65.47
2022-10-04T04:12:44.064Z,65.69
2022-10-04T04:15:14.914Z,65.71
2022-10-04T04:17:48.572Z,65.64
2022-10-04T04:20:28.714Z,65.86
2022-10-04T04:23:24.315Z,65.78
2022-10-04T04:25:55.351Z,65.67
2022-10-04T04:28:46.246Z,65.81
2022-10-04T04:31:37.776Z,65.68
2022-10-04T04:34:17.425Z,65.88
2022-10-04T04:36:44.572Z,65.87
2022-10-04T04:39:35.018Z,65.94
2022-10-04T04:42:19.292Z,66.26
2022-10-04T04:45:14.596Z,65.74
2022-10-04T04:47:50.453Z,66.01
2022-10-04T04:50:44.429Z,65.76
2022-10-04T04:53:24.344Z,65.80
2022-10-04T04:56:11.049Z,66.03
2022-10-04T04:58:46.710Z,65.94
2022-10-04T05:01:36.440Z,66.19
2022-10-04T05:04:09.561Z,65.97
2022-10-04T05:06:39.698Z,66.35
2022-10-04T05:09:24.366Z,65.94
2022-10-04T05:11:58.032Z,65.98
2022-10-04T05:14:25.339Z,66.00
2022-10-04T05:16:55.979Z,66.48
2022-10-04T05:19:22.825Z,66.32
2022-10-04T05:21:54.492Z,66.50
2022-10-04T05:24:30.433Z,65.97
2022-10-04T05:27:05.895Z,66.52
2022-10-04T05:29:38.185Z,65.94
2022-10-04T05:32:41.547Z,66.38
2022-10-04T05:35:29.101Z,66.14
2022-10-04T05:38:35.159Z,66.30
2022-10-04T05:41:14.321Z,66.18
2022-10-04T05:43:51.327Z,66.31
2022-10-04T05:46:28.548Z,65.65
2022-10-04T05:49:01.145Z,65.95
2022-10-04T05:51:47.589Z,66.01
2022-10-04T05:54:23.122Z,66.17
2022-10-04T05:58:01.304Z,65.93
2022-10-04T06:01:16.551Z,65.97
2022-10-04T06:04:17.084Z,66.15
2022-10-04T06:06:54.859Z,65.76
2022-10-04T06:09:48.727Z,66.24
2022-10-04T06:12:59.459Z,65.69
2022-10-04T06:16:03.262Z,65.60
2022-10-04T06:18:48.678Z,65.87
2022-10-04T06:21:36.481Z,65.80
2022-10-04T06:24:32.900Z,65.59
2022-10-04T06:27:14.504Z,65.38
2022-10-04T06:29:56.027Z,65.15
2022-10-04T06:32:55.248Z,65.22
2022-10-04T06:36:33.542Z,65.33
2022-10-04T06:39:35.110Z,64.96
2022-10-04T06:42:17.676Z,65.03
2022-10-04T06:45:21.332Z,64.67
2022-10-04T06:48:19.304Z,64.57
2022-10-04T06:51:18.654Z,64.69
2022-10-04T06:54:18.379Z,64.59
2022-10-04T06:56:59.563Z,64.40
2022-10-04T06:59:51.423Z,64.34
2022-10-04T07:02:29.442Z,64.20
2022-10-04T07:05:19.577Z,64.12
2022-10-04T07:08:07.696Z,63.84
2022-10-04T07:11:03.263Z,63.92
2022-10-04T07:14:02.997Z,63.95
2022-10-04T07:17:01.283Z,63.73
2022-10-04T07:19:41.127Z,63.57
2022-10-04T07:22:15.552Z,63.56
2022-10-04T07:24:52.003Z,63.12
2022-10-04T07:27:49.580Z,62.82
2022-10-04T07:30:20.983Z,62.58
2022-10-04T07:32:53.261Z,62.95
2022-10-04T07:35:44.407Z,62.43
2022-10-04T07:38:34.522Z,62.47
2022-10-04T07:41:32.396Z,61.85
2022-10-04T07:44:20.869Z,62.00
2022-10-04T07:47:05.898Z,61.78
2022-10-04T07:49:40.095Z,61.33
2022-10-04T07:52:29.573Z,61.36
2022-10-04T07:55:16.247Z,61.25
2022-10-04T07:58:23.345Z,61.55
2022-10-04T08:00:51.879Z,61.39
2022-10-04T08:03:19.494Z,61.11
2022-10-04T08:06:10.515Z,60.79
2022-10-04T08:09:36.275Z,60.74
2022-10-04T08:12:41.968Z,60.33
2022-10-04T08:15:29.423Z,59.75
2022-10-04T08:18:26.290Z,60.17
2022-10-04T08:21:07.968Z,59.58
2022-10-04T08:24:07.684Z,59.69
2022-10-04T08:27:16.967Z,58.41
2022-10-04T08:30:04.723Z,58.97
2022-10-04T08:32:41.543Z,58.25
2022-10-04T08:35:08.582Z,58.32
2022-10-04T08:37:47.778Z,58.40
2022-10-04T08:40:36.452Z,57.79
2022-10-04T08:43:56.096Z,57.75
2022-10-04T08:47:00.775Z,57.38
2022-10-04T08:50:05.824Z,57.60
2022-10-04T08:53:22.075Z,57.05
2022-10-04T08:56:26.859Z,57.64
2022-10-04T08:59:27.156Z,57.51
2022-10-04T09:02:32.408Z,57.38
2022-10-04T09:05:38.815Z,56.97
2022-10-04T09:08:48.551Z,56.33
2022-10-04T09:11:21.278Z,56.42
2022-10-04T09:14:15.494Z,55.63
2022-10-04T09:16:48.762Z,55.81
2022-10-04T09:20:37.216Z,55.82
2022-10-04T09:23:22.139Z,55.79
2022-10-04T09:26:12.584Z,55.97
2022-10-04T09:29:29.586Z,56.23
2022-10-04T09:32:10.320Z,55.92
2022-10-04T09:35:10.232Z,56.17
2022-10-04T09:38:23.969Z,55.55
2022-10-04T09:41:26.805Z,55.62
2022-10-04T09:44:40.771Z,55.60
2022-10-04T09:47:43.917Z,55.08
2022-10-04T09:50:37.469Z,54.79
2022-10-04T09:53:40.318Z,54.59
2022-10-04T09:56:28.929Z,54.21
2022-10-04T09:59:42.502Z,54.55
2022-10-04T10:03:03.323Z,54.41
2022-10-04T10:06:05.274Z,54.21
2022-10-04T10:09:20.642Z,54.01
2022-10-04T10:12:22.065Z,53.64
2022-10-04T10:15:18.556Z,53.69
2022-10-04T10:18:09.011Z,53.53
2022-10-04T10:21:00.784Z,53.81
2022-10-04T10:23:45.371Z,53.52
2022-10-04T10:26:41.786Z,53.61
2022-10-04T10:29:36.904Z,53.52
2022-10-04T10:32:33.967Z,53.19
2022-10-04T10:35:54.814Z,53.31
2022-10-04T10:38:43.022Z,53.14
2022-10-04T10:41:26.319Z,52.90
2022-10-04T10:44:11.408Z,52.53
2022-10-04T10:46:58.982Z,52.32
2022-10-04T10:50:27.508Z,52.10
2022-10-04T10:53:30.293Z,51.35
2022-10-04T10:56:52.980Z,50.72
2022-10-04T10:59:51.147Z,51.25
2022-10-04T11:02:49.810Z,51.24
2022-10-04T11:05:58.300Z,51.08
2022-10-04T11:09:12.098Z,50.71
2022-10-04T11:12:27.924Z,50.14
2022-10-04T11:15:29.142Z,50.23
2022-10-04T11:18:40.929Z,50.28
2022-10-04T11:21:45.396Z,49.95
2022-10-04T11:24:44.646Z,48.92
2022-10-04T11:27:47.781Z,48.81
2022-10-04T11:30:26.745Z,49.70
2022-10-04T11:33:12.264Z,49.60
2022-10-04T11:35:46.051Z,49.33
2022-10-04T11:38:32.108Z,49.50
2022-10-04T11:41:23.179Z,50.05
2022-10-04T11:44:15.969Z,50.28
2022-10-04T11:47:21.806Z,49.95
2022-10-04T11:50:22.561Z,49.79
2022-10-04T11:53:14.007Z,49.70
2022-10-04T11:56:05.851Z,49.44
2022-10-04T11:59:03.582Z,49.83
2022-10-04T12:02:29.537Z,49.78
2022-10-04T12:05:32.418Z,49.22
2022-10-04T12:08:32.051Z,49.24
2022-10-04T12:12:05.035Z,48.73
2022-10-04T12:14:40.933Z,48.98
2022-10-04T12:17:10.860Z,48.97
2022-10-04T12:19:53.983Z,47.36
2022-10-04T12:23:05.232Z,49.17
2022-10-04T12:26:07.303Z,48.90
2022-10-04T12:29:03.520Z,47.69
2022-10-04T12:31:59.094Z,46.18
2022-10-04T12:34:58.593Z,46.95
2022-10-04T12:38:08.628Z,47.24
2022-10-04T12:41:13.329Z,47.92
2022-10-04T12:44:08.798Z,48.21
2022-10-04T12:47:01.377Z,48.53
2022-10-04T12:49:39.466Z,48.77
2022-10-04T12:52:27.840Z,49.35
2022-10-04T12:55:41.134Z,48.64
2022-10-04T12:59:10.257Z,47.68
2022-10-04T13:02:38.016Z,48.17
2022-10-04T13:05:38.126Z,47.82
2022-10-04T13:08:37.872Z,48.15
2022-10-04T13:11:53.301Z,47.43
2022-10-04T13:14:23.511Z,47.45
2022-10-04T13:17:33.996Z,47.26
2022-10-04T13:20:44.698Z,47.32
2022-10-04T13:23:34.358Z,46.49
2022-10-04T13:26:25.530Z,45.93
2022-10-04T13:29:21.871Z,46.01
2022-10-04T13:32:03.206Z,46.53
2022-10-04T13:35:13.865Z,46.40
2022-10-04T13:38:02.407Z,46.31
2022-10-04T13:41:36.791Z,46.74
2022-10-04T13:44:24.335Z,46.75
2022-10-04T13:47:48.859Z,46.75
2022-10-04T13:50:17.571Z,46.81
2022-10-04T13:53:27.189Z,46.17
2022-10-04T13:56:40.376Z,45.68
2022-10-04T13:59:30.861Z,45.44
2022-10-04T14:02:28.361Z,45.74
2022-10-04T14:05:09.624Z,46.07
2022-10-04T14:08:05.046Z,45.69
2022-10-04T14:11:01.845Z,45.29
2022-10-04T14:14:00.483Z,45.82
2022-10-04T14:17:10.916Z,45.51
2022-10-04T14:20:24.112Z,45.88
2022-10-04T14:24:17.441Z,45.96
2022-10-04T14:27:24.171Z,45.80
2022-10-04T14:30:09.766Z,45.59
2022-10-04T14:32:55.702Z,45.57
2022-10-04T14:35:33.620Z,45.88
2022-10-04T14:38:36.486Z,46.11
2022-10-04T14:41:53.961Z,46.20
2022-10-04T14:44:45.602Z,46.34
2022-10-04T14:47:54.288Z,46.70
2022-10-04T14:50:58.233Z,46.58
2022-10-04T14:53:49.955Z,46.59
2022-10-04T14:57:00.831Z,47.07
2022-10-04T14:59:36.613Z,47.64
2022-10-04T15:02:04.894Z,46.80
2022-10-04T15:04:52.632Z,46.77
2022-10-04T15:07:31.955Z,46.80
2022-10-04T15:10:19.144Z,47.27
2022-10-04T15:13:35.411Z,47.75
2022-10-04T15:16:29.926Z,47.47
2022-10-04T15:19:26.110Z,47.58
2022-10-04T15:21:56.098Z,47.84
2022-10-04T15:24:46.726Z,47.44
2022-10-04T15:27:38.551Z,47.55
2022-10-04T15:30:44.696Z,47.26
2022-10-04T15:33:30.575Z,47.50
2022-10-04T15:35:57.771Z,48.20
2022-10-04T15:38:37.146Z,48.22
2022-10-04T15:41:30.196Z,48.89
2022-10-04T15:44:13.462Z,49.02
2022-10-04T15:46:56.167Z,49.63
2022-10-04T15:49:39.707Z,49.29
2022-10-04T15:52:40.791Z,49.19
2022-10-04T15:55:26.953Z,49.90
2022-10-04T15:58:19.918Z,50.12
2022-10-04T16:01:44.318Z,49.59
2022-10-04T16:05:00.197Z,49.90
2022-10-04T16:07:39.910Z,49.72
2022-10-04T16:10:24.648Z,50.19
2022-10-04T16:13:26.344Z,50.52
2022-10-04T16:16:19.366Z,50.14
2022-10-04T16:19:53.202Z,50.90
2022-10-04T16:22:33.258Z,51.19
2022-10-04T16:25:25.623Z,51.36
2022-10-04T16:27:58.595Z,51.78
2022-10-04T16:30:40.390Z,52.08
2022-10-04T16:33:51.203Z,51.89
2022-10-04T16:36:45.471Z,51.68
2022-10-04T16:39:51.747Z,52.02
2022-10-04T16:42:27.159Z,52.35
2022-10-04T16:45:45.105Z,52.01
2022-10-04T16:48:49.189Z,52.07
2022-10-04T16:51:27.031Z,52.33
2022-10-04T16:54:31.721Z,52.52
2022-10-04T16:57:00.803Z,53.29
2022-10-04T16:59:37.111Z,53.47
2022-10-04T17:02:23.055Z,53.66
2022-10-04T17:05:23.007Z,54.18
2022-10-04T17:08:11.785Z,54.35
2022-10-04T17:11:32.671Z,54.27
2022-10-04T17:14:34.160Z,54.69
2022-10-04T17:17:21.213Z,54.87
2022-10-04T17:20:41.178Z,54.95
2022-10-04T17:23:41.123Z,55.00
2022-10-04T17:26:32.884Z,55.27
2022-10-04T17:29:57.545Z,55.26
2022-10-04T17:32:55.060Z,54.91
2022-10-04T17:35:59.183Z,54.94
2022-10-04T17:39:01.029Z,55.36
2022-10-04T17:41:41.416Z,55.21
2022-10-04T17:44:29.441Z,55.49
2022-10-04T17:47:27.294Z,55.44
2022-10-04T17:50:35.467Z,57.11
2022-10-04T17:53:33.704Z,56.95
2022-10-04T17:56:06.657Z,56.04
2022-10-04T17:58:51.316Z,56.11
2022-10-04T18:01:45.886Z,57.13
2022-10-04T18:04:17.187Z,56.17
2022-10-04T18:07:20.729Z,55.94
2022-10-04T18:10:04.582Z,56.16
2022-10-04T18:12:48.777Z,56.03
2022-10-04T18:15:38.944Z,57.14
2022-10-04T18:18:06.150Z,57.20
2022-10-04T18:21:02.395Z,56.85
2022-10-04T18:23:35.713Z,57.86
2022-10-04T18:26:18.470Z,57.84
2022-10-04T18:28:47.627Z,58.94
2022-10-04T18:31:29.448Z,58.46
2022-10-04T18:34:44.382Z,58.79
2022-10-04T18:37:42.430Z,58.94
2022-10-04T18:40:33.214Z,58.43
2022-10-04T18:43:01.915Z,58.92
2022-10-04T18:45:31.355Z,59.01
2022-10-04T18:48:16.747Z,59.08
2022-10-04T18:50:47.468Z,59.61
2022-10-04T18:53:44.217Z,59.06
2022-10-04T18:56:13.151Z,59.49
2022-10-04T18:59:17.529Z,59.28
2022-10-04T19:02:06.682Z,59.23
2022-10-04T19:04:48.438Z,59.69
2022-10-04T19:08:00.969Z,59.63
2022-10-04T19:10:34.227Z,59.93
2022-10-04T19:13:29.705Z,60.36
2022-10-04T19:16:22.984Z,60.06
2022-10-04T19:19:34.821Z,60.29
2022-10-04T19:22:18.907Z,60.43
2022-10-04T19:25:34.719Z,60.45
2022-10-04T19:28:18.168Z,60.41
2022-10-04T19:31:12.960Z,60.49
2022-10-04T19:33:56.095Z,60.53
2022-10-04T19:37:19.952Z,60.92
2022-10-04T19:40:13.279Z,60.78
2022-10-04T19:43:03.159Z,60.89
2022-10-04T19:46:02.352Z,60.75
2022-10-04T19:48:41.894Z,61.39
2022-10-04T19:51:26.816Z,61.09
2022-10-04T19:54:15.316Z,61.52
2022-10-04T19:56:49.813Z,61.31
2022-10-04T19:59:40.920Z,61.57
2022-10-04T20:02:13.355Z,61.84
2022-10-04T20:04:43.754Z,62.42
2022-10-04T20:07:16.108Z,62.22
2022-10-04T20:10:20.428Z,62.87
2022-10-04T20:13:21.469Z,63.29
2022-10-04T20:15:55.616Z,63.58
2022-10-04T20:18:32.309Z,63.42
2022-10-04T20:21:00.315Z,63.57
2022-10-04T20:23:39.743Z,63.48
2022-10-04T20:26:09.957Z,64.20
2022-10-04T20:28:44.475Z,63.80
2022-10-04T20:31:30.652Z,63.97
2022-10-04T20:34:36.733Z,63.70
2022-10-04T20:37:09.573Z,63.72
2022-10-04T20:39:40.337Z,63.97
2022-10-04T20:42:31.905Z,63.71
2022-10-04T20:45:12.343Z,64.08
2022-10-04T20:47:48.239Z,63.31
2022-10-04T20:50:20.924Z,63.21
2022-10-04T20:52:53.857Z,63.97
2022-10-04T20:55:37.333Z,63.51
2022-10-04T20:58:32.868Z,63.92
2022-10-04T21:01:47.180Z,64.18
2022-10-04T21:04:46.584Z,65.19
2022-10-04T21:07:27.001Z,64.81
2022-10-04T21:10:16.078Z,64.60
2022-10-04T21:12:45.760Z,64.53
2022-10-04T21:15:16.994Z,65.06
2022-10-04T21:18:18.321Z,64.71
2022-10-04T21:20:51.614Z,64.92
2022-10-04T21:23:35.056Z,65.25
2022-10-04T21:26:39.783Z,65.45
2022-10-04T21:29:07.504Z,65.27
2022-10-04T21:31:35.091Z,65.52
2022-10-04T21:34:03.062Z,65.45
2022-10-04T21:36:30.935Z,65.34
2022-10-04T21:38:59.725Z,64.82
2022-10-04T21:41:27.703Z,65.45
2022-10-04T21:43:54.717Z,65.37
2022-10-04T21:46:22.062Z,64.95
2022-10-04T21:48:49.557Z,65.62
2022-10-04T21:51:17.811Z,65.53
2022-10-04T21:53:45.148Z,65.54
2022-10-04T21:56:12.330Z,65.64
2022-10-04T21:58:39.146Z,65.55
2022-10-04T22:01:06.427Z,65.79
2022-10-04T22:03:33.602Z,65.15
2022-10-04T22:06:00.486Z,65.43
2022-10-04T22:08:27.471Z,65.18
2022-10-04T22:10:57.604Z,65.23
2022-10-04T22:13:25.731Z,65.08
2022-10-04T22:15:53.366Z,65.41
2022-10-04T22:18:20.252Z,65.12
2022-10-04T22:20:47.123Z,65.75
2022-10-04T22:23:21.011Z,65.53
2022-10-04T22:25:48.757Z,65.90
2022-10-04T22:28:28.299Z,65.60
2022-10-04T22:30:56.522Z,65.30
2022-10-04T22:33:36.691Z,64.97
2022-10-04T22:36:21.177Z,65.22
2022-10-04T22:38:59.697Z,65.43
2022-10-04T22:41:38.887Z,65.42
2022-10-04T22:44:27.763Z,65.55
2022-10-04T22:46:58.954Z,65.41
2022-10-04T22:49:31.518Z,65.78
2022-10-04T22:52:02.608Z,65.74
2022-10-04T22:54:35.656Z,65.94
2022-10-04T22:57:02.578Z,65.77
2022-10-04T22:59:40.925Z,66.31
2022-10-04T23:02:17.247Z,66.31
2022-10-04T23:04:54.519Z,66.01
2022-10-04T23:07:22.023Z,66.15
2022-10-04T23:09:50.030Z,66.48
2022-10-04T23:12:17.095Z,66.41
2022-10-04T23:14:44.268Z,66.78
2022-10-04T23:17:24.397Z,66.83
2022-10-04T23:20:03.827Z,66.34
2022-10-04T23:22:31.080Z,66.61
2022-10-04T23:24:58.587Z,66.60
2022-10-04T23:27:25.454Z,66.65
2022-10-04T23:30:05.246Z,66.51
2022-10-04T23:32:33.202Z,67.06
2022-10-04T23:35:04.032Z,67.15
2022-10-04T23:37:32.728Z,66.73
2022-10-04T23:40:00.193Z,66.97
2022-10-04T23:42:33.486Z,66.86
2022-10-04T23:45:02.521Z,66.52
2022-10-04T23:47:36.924Z,66.60
2022-10-04T23:50:22.980Z,66.41
2022-10-04T23:52:55.224Z,66.85
2022-10-04T23:55:32.556Z,66.39
2022-10-04T23:58:00.667Z,66.69
